Time;durP1;ratioP1;P1;durP2;ratioP2;P2;SDS_P1;SDS_P2;PMS_P1;PMS_P2;Temp;Humidity;BMP_temperature;BMP_pressure;BME280_temperature;BME280_humidity;BME280_pressure;Samples;Min_cycle;Max_cycle;Signal;HPM_P1;HPM_P2
2022/08/15 00:00:00;;;;;;;16.50;13.90;;;;;;;;;;5105135;28;20049;-63
2022/08/15 00:02:27;;;;;;;16.48;14.77;;;;;;;;;;5081883;28;20097;-63
2022/08/15 00:04:54;;;;;;;16.38;14.65;;;;;;;;;;5096063;28;20421;-63
2022/08/15 00:07:22;;;;;;;16.10;14.10;;;;;;;;;;5105068;28;20394;-63
2022/08/15 00:09:50;;;;;;;18.17;13.45;;;;;;;;;;5096532;28;20052;-64
2022/08/15 00:12:18;;;;;;;13.45;12.13;;;;;;;;;;5099797;28;20120;-63
2022/08/15 00:14:45;;;;;;;13.90;12.10;;;;;;;;;;5102367;28;20075;-63
2022/08/15 00:17:13;;;;;;;15.20;13.55;;;;;;;;;;5102960;28;20055;-63
2022/08/15 00:19:44;;;;;;;15.02;12.80;;;;;;;;;;5104608;28;20056;-63
2022/08/15 00:22:17;;;;;;;13.25;11.90;;;;;;;;;;5105209;28;20071;-64
2022/08/15 00:24:45;;;;;;;15.13;12.98;;;;;;;;;;5100347;28;20166;-63
2022/08/15 00:27:14;;;;;;;14.93;12.65;;;;;;;;;;5087306;28;20525;-63
2022/08/15 00:29:41;;;;;;;14.30;12.70;;;;;;;;;;5104599;28;20052;-63
2022/08/15 00:32:10;;;;;;;14.55;13.00;;;;;;;;;;5079878;28;20056;-63
2022/08/15 00:34:38;;;;;;;16.02;14.30;;;;;;;;;;5105655;28;20104;-63
2022/08/15 00:37:05;;;;;;;15.82;13.80;;;;;;;;;;5102186;28;20059;-63
2022/08/15 00:39:34;;;;;;;16.77;14.70;;;;;;;;;;5077162;28;20047;-63
2022/08/15 00:42:03;;;;;;;17.02;14.63;;;;;;;;;;5094313;28;20048;-63
2022/08/15 00:44:34;;;;;;;16.98;15.35;;;;;;;;;;5080219;28;20062;-64
2022/08/15 00:47:03;;;;;;;17.73;15.68;;;;;;;;;;5099324;28;20137;-63
2022/08/15 00:49:32;;;;;;;22.13;14.55;;;;;;;;;;5099153;28;20516;-63
2022/08/15 00:52:00;;;;;;;17.77;15.40;;;;;;;;;;5074829;28;20962;-63
2022/08/15 00:54:29;;;;;;;16.88;14.40;;;;;;;;;;5085997;28;20060;-63
2022/08/15 00:56:59;;;;;;;16.75;15.02;;;;;;;;;;5103393;28;20079;-63
2022/08/15 00:59:28;;;;;;;20.23;16.00;;;;;;;;;;5106053;28;20047;-63
2022/08/15 01:01:57;;;;;;;15.85;14.23;;;;;;;;;;5104375;28;20104;-63
2022/08/15 01:04:25;;;;;;;17.48;15.00;;;;;;;;;;5103541;28;20490;-63
2022/08/15 01:06:52;;;;;;;16.33;14.68;;;;;;;;;;5103618;28;20040;-63
2022/08/15 01:09:20;;;;;;;18.83;14.77;;;;;;;;;;5093321;28;20136;-64
2022/08/15 01:11:51;;;;;;;15.13;13.55;;;;;;;;;;5092739;28;20058;-63
2022/08/15 01:14:20;;;;;;;16.33;13.98;;;;;;;;;;5078958;28;20055;-63
2022/08/15 01:16:47;;;;;;;15.15;13.50;;;;;;;;;;5098217;28;20500;-63
2022/08/15 01:19:18;;;;;;;18.17;14.18;;;;;;;;;;5101472;28;20555;-63
2022/08/15 01:22:00;;;;;;;16.75;13.93;;;;;;;;;;5076492;28;20506;-63
2022/08/15 01:24:48;;;;;;;13.70;12.30;;;;;;;;;;5098583;28;20079;-63
2022/08/15 01:27:17;;;;;;;14.38;12.23;;;;;;;;;;5092109;28;20043;-63
2022/08/15 01:29:44;;;;;;;15.05;12.20;;;;;;;;;;5087666;28;20104;-63
2022/08/15 01:32:12;;;;;;;13.07;11.55;;;;;;;;;;5100500;28;20613;-63
2022/08/15 01:34:39;;;;;;;15.15;12.38;;;;;;;;;;5083803;28;20059;-63
2022/08/15 01:37:07;;;;;;;13.82;11.88;;;;;;;;;;5105110;28;20402;-64
2022/08/15 01:39:38;;;;;;;13.48;12.13;;;;;;;;;;5084324;28;20522;-63
2022/08/15 01:42:09;;;;;;;14.27;11.57;;;;;;;;;;5103550;28;20130;-64
2022/08/15 01:44:41;;;;;;;11.82;10.60;;;;;;;;;;5098932;28;20097;-63
2022/08/15 01:47:11;;;;;;;15.13;11.95;;;;;;;;;;5101586;28;20044;-63
2022/08/15 01:49:41;;;;;;;13.65;11.57;;;;;;;;;;5104268;28;20117;-63
2022/08/15 01:52:09;;;;;;;15.30;11.05;;;;;;;;;;5102509;28;20195;-63
2022/08/15 01:54:39;;;;;;;14.00;10.65;;;;;;;;;;5101198;28;20058;-63
2022/08/15 01:57:06;;;;;;;12.98;11.20;;;;;;;;;;5105261;28;20051;-63
2022/08/15 01:59:34;;;;;;;11.90;10.30;;;;;;;;;;5109192;28;20447;-63
2022/08/15 02:02:03;;;;;;;12.30;10.35;;;;;;;;;;5104267;28;20055;-63
2022/08/15 02:04:33;;;;;;;13.55;10.38;;;;;;;;;;5101709;28;20048;-63
2022/08/15 02:07:04;;;;;;;12.73;10.52;;;;;;;;;;5104081;28;20043;-64
2022/08/15 02:09:32;;;;;;;12.65;10.15;;;;;;;;;;5096815;28;20105;-63
2022/08/15 02:12:00;;;;;;;13.68;10.50;;;;;;;;;;5105519;28;20048;-63
2022/08/15 02:14:28;;;;;;;13.25;10.98;;;;;;;;;;5082585;28;20079;-63
2022/08/15 02:16:55;;;;;;;12.23;10.75;;;;;;;;;;5086647;28;20044;-63
2022/08/15 02:19:23;;;;;;;13.80;11.40;;;;;;;;;;5105261;28;20710;-63
2022/08/15 02:21:51;;;;;;;11.48;10.25;;;;;;;;;;5102597;28;20048;-63
2022/08/15 02:24:19;;;;;;;13.63;11.00;;;;;;;;;;5085146;28;20112;-63
2022/08/15 02:26:47;;;;;;;13.25;11.10;;;;;;;;;;5107520;28;20707;-63
2022/08/15 02:29:14;;;;;;;14.07;10.75;;;;;;;;;;5108271;28;20108;-63
2022/08/15 02:31:42;;;;;;;12.20;11.00;;;;;;;;;;5103874;28;20048;-63
2022/08/15 02:34:10;;;;;;;13.90;11.88;;;;;;;;;;5107129;28;20047;-63
2022/08/15 02:36:39;;;;;;;12.00;10.77;;;;;;;;;;5089363;28;20055;-63
2022/08/15 02:39:09;;;;;;;12.52;11.20;;;;;;;;;;5101572;28;20449;-63
2022/08/15 02:41:38;;;;;;;11.77;10.57;;;;;;;;;;5104805;28;20059;-63
2022/08/15 02:44:06;;;;;;;14.27;12.20;;;;;;;;;;5106391;28;20062;-63
2022/08/15 02:46:37;;;;;;;14.40;12.77;;;;;;;;;;5101274;28;20048;-63
2022/08/15 02:49:12;;;;;;;16.45;12.35;;;;;;;;;;5106688;28;20048;-63
2022/08/15 02:51:41;;;;;;;16.38;12.43;;;;;;;;;;5103660;28;20044;-63
2022/08/15 02:54:09;;;;;;;14.02;11.13;;;;;;;;;;5104798;28;21423;-63
2022/08/15 02:56:36;;;;;;;14.65;12.60;;;;;;;;;;5102863;28;20040;-63
2022/08/15 02:59:07;;;;;;;13.77;12.38;;;;;;;;;;5093923;28;20051;-63
2022/08/15 03:01:37;;;;;;;15.10;12.63;;;;;;;;;;5098551;28;20055;-63
2022/08/15 03:04:05;;;;;;;16.48;12.80;;;;;;;;;;5102882;28;20047;-64
2022/08/15 03:06:33;;;;;;;14.60;13.13;;;;;;;;;;5096655;28;20075;-63
2022/08/15 03:09:06;;;;;;;15.05;12.90;;;;;;;;;;5099641;28;20052;-63
2022/08/15 03:11:36;;;;;;;14.38;12.88;;;;;;;;;;5103334;28;20075;-63
2022/08/15 03:14:07;;;;;;;14.45;12.85;;;;;;;;;;5100428;28;20043;-63
2022/08/15 03:16:35;;;;;;;17.95;12.63;;;;;;;;;;5106511;28;20537;-63
2022/08/15 03:19:02;;;;;;;15.77;13.23;;;;;;;;;;5083562;28;20072;-63
2022/08/15 03:21:29;;;;;;;15.43;12.82;;;;;;;;;;5105178;28;20044;-63
2022/08/15 03:23:58;;;;;;;16.17;12.40;;;;;;;;;;5102331;28;20035;-63
2022/08/15 03:26:27;;;;;;;13.52;12.07;;;;;;;;;;5102893;28;20107;-63
2022/08/15 03:28:54;;;;;;;17.73;13.98;;;;;;;;;;5104612;28;20112;-63
2022/08/15 03:31:22;;;;;;;14.07;12.68;;;;;;;;;;5104332;28;20098;-63
2022/08/15 03:33:49;;;;;;;15.05;12.80;;;;;;;;;;5086880;28;20055;-63
2022/08/15 03:36:18;;;;;;;20.48;14.55;;;;;;;;;;5104656;28;20101;-63
2022/08/15 03:38:46;;;;;;;16.35;14.32;;;;;;;;;;5105870;28;20111;-63
2022/08/15 03:41:14;;;;;;;18.45;14.50;;;;;;;;;;5084125;28;21233;-63
2022/08/15 03:43:43;;;;;;;20.00;14.30;;;;;;;;;;5079565;28;20074;-63
2022/08/15 03:46:12;;;;;;;18.30;13.85;;;;;;;;;;5106282;28;20055;-63
2022/08/15 03:48:40;;;;;;;18.60;13.77;;;;;;;;;;5102561;28;20043;-63
2022/08/15 03:51:08;;;;;;;19.10;14.07;;;;;;;;;;5106238;28;20062;-63
2022/08/15 03:53:36;;;;;;;15.48;13.88;;;;;;;;;;5097020;28;20047;-63
2022/08/15 03:56:05;;;;;;;15.32;13.70;;;;;;;;;;5102610;28;20051;-63
2022/08/15 03:58:33;;;;;;;16.65;14.05;;;;;;;;;;5102893;28;20044;-63
2022/08/15 04:01:02;;;;;;;14.65;13.15;;;;;;;;;;5104327;28;20044;-63
2022/08/15 04:03:30;;;;;;;20.65;15.13;;;;;;;;;;5104817;28;20498;-63
2022/08/15 04:05:58;;;;;;;16.98;14.75;;;;;;;;;;5103844;28;20048;-63
2022/08/15 04:08:27;;;;;;;19.23;15.60;;;;;;;;;;5102506;28;20042;-63
2022/08/15 04:10:55;;;;;;;18.30;15.68;;;;;;;;;;5097510;28;20044;-63
2022/08/15 04:13:24;;;;;;;16.30;14.60;;;;;;;;;;5102236;28;20395;-63
2022/08/15 04:15:51;;;;;;;16.92;14.88;;;;;;;;;;5084319;28;20051;-63
2022/08/15 04:18:20;;;;;;;16.95;15.07;;;;;;;;;;5103426;28;20461;-63
2022/08/15 04:20:47;;;;;;;24.00;17.85;;;;;;;;;;5104391;28;20101;-63
2022/08/15 04:23:15;;;;;;;19.83;16.50;;;;;;;;;;5105412;28;20044;-63
2022/08/15 04:25:43;;;;;;;19.83;16.13;;;;;;;;;;5104294;28;20054;-63
2022/08/15 04:28:13;;;;;;;17.33;15.60;;;;;;;;;;5085229;28;20046;-63
2022/08/15 04:30:41;;;;;;;22.33;16.70;;;;;;;;;;5102599;28;20083;-63
2022/08/15 04:33:09;;;;;;;18.48;16.27;;;;;;;;;;5103667;28;20051;-63
2022/08/15 04:35:38;;;;;;;18.63;16.33;;;;;;;;;;5104162;28;20040;-63
2022/08/15 04:38:06;;;;;;;19.85;15.15;;;;;;;;;;5101941;28;20052;-63
2022/08/15 04:40:33;;;;;;;18.00;15.68;;;;;;;;;;5084176;28;20530;-63
2022/08/15 04:43:01;;;;;;;19.27;16.35;;;;;;;;;;5102194;28;20117;-63
2022/08/15 04:45:30;;;;;;;17.63;15.73;;;;;;;;;;5102970;28;20498;-63
2022/08/15 04:47:57;;;;;;;20.08;16.30;;;;;;;;;;5105098;28;20036;-63
2022/08/15 04:50:24;;;;;;;21.00;15.77;;;;;;;;;;5084863;28;20086;-63
2022/08/15 04:52:57;;;;;;;22.00;17.73;;;;;;;;;;5102080;28;20066;-63
2022/08/15 04:55:25;;;;;;;20.48;16.70;;;;;;;;;;5100544;28;20043;-63
2022/08/15 04:57:53;;;;;;;20.20;16.80;;;;;;;;;;5096632;28;20120;-63
2022/08/15 05:00:21;;;;;;;21.08;16.52;;;;;;;;;;5102178;28;20059;-63
2022/08/15 05:02:58;;;;;;;23.08;18.08;;;;;;;;;;5105242;28;20051;-63
2022/08/15 05:05:25;;;;;;;22.00;16.40;;;;;;;;;;5100305;28;20116;-63
2022/08/15 05:07:54;;;;;;;22.77;17.23;;;;;;;;;;5100946;28;20490;-63
2022/08/15 05:10:22;;;;;;;20.00;16.17;;;;;;;;;;5085378;28;20062;-63
2022/08/15 05:12:49;;;;;;;19.80;17.70;;;;;;;;;;5099576;28;20506;-63
2022/08/15 05:15:17;;;;;;;21.77;17.02;;;;;;;;;;5095661;28;20047;-63
2022/08/15 05:17:45;;;;;;;20.92;16.98;;;;;;;;;;5094222;28;20055;-63
2022/08/15 05:20:13;;;;;;;24.13;17.52;;;;;;;;;;5078796;28;20593;-63
2022/08/15 05:22:53;;;;;;;22.23;17.95;;;;;;;;;;5077561;28;20048;-63
2022/08/15 05:25:21;;;;;;;22.42;16.75;;;;;;;;;;5089737;28;20079;-63
2022/08/15 05:27:48;;;;;;;22.20;16.48;;;;;;;;;;5096567;28;20173;-63
2022/08/15 05:30:16;;;;;;;19.33;16.77;;;;;;;;;;5101025;28;20079;-63
2022/08/15 05:32:43;;;;;;;20.90;17.23;;;;;;;;;;5096312;28;20048;-63
2022/08/15 05:35:11;;;;;;;20.02;16.70;;;;;;;;;;5097845;28;20522;-63
2022/08/15 05:37:38;;;;;;;20.52;16.33;;;;;;;;;;5093418;28;20137;-63
2022/08/15 05:40:08;;;;;;;22.65;17.52;;;;;;;;;;5093347;28;20044;-63
2022/08/15 05:42:49;;;;;;;23.10;17.17;;;;;;;;;;5080924;28;20065;-63
2022/08/15 05:45:20;;;;;;;23.83;18.08;;;;;;;;;;5101523;28;20040;-63
2022/08/15 05:47:50;;;;;;;20.27;18.17;;;;;;;;;;5086564;28;20047;-63
2022/08/15 05:50:21;;;;;;;19.92;17.25;;;;;;;;;;5102064;28;20047;-63
2022/08/15 05:52:50;;;;;;;24.42;17.65;;;;;;;;;;5098613;28;20043;-63
2022/08/15 05:55:23;;;;;;;22.27;18.70;;;;;;;;;;5086281;28;20421;-63
2022/08/15 05:58:02;;;;;;;22.50;17.83;;;;;;;;;;5087779;28;20381;-63
2022/08/15 06:00:31;;;;;;;25.05;17.83;;;;;;;;;;5104187;28;20060;-63
2022/08/15 06:03:00;;;;;;;20.13;17.83;;;;;;;;;;5103696;28;20055;-63
2022/08/15 06:05:29;;;;;;;20.70;18.17;;;;;;;;;;5105133;28;20047;-63
2022/08/15 06:07:58;;;;;;;21.05;17.75;;;;;;;;;;5102309;28;20135;-63
2022/08/15 06:10:28;;;;;;;21.90;17.90;;;;;;;;;;5107269;28;20044;-63
2022/08/15 06:12:59;;;;;;;21.00;17.80;;;;;;;;;;5108525;28;20052;-63
2022/08/15 06:15:29;;;;;;;24.60;18.08;;;;;;;;;;5105881;27;20713;-63
2022/08/15 06:17:58;;;;;;;23.52;18.35;;;;;;;;;;5101765;28;20039;-63
2022/08/15 06:20:33;;;;;;;22.67;18.02;;;;;;;;;;5100697;28;20044;-63
2022/08/15 06:23:05;;;;;;;19.45;17.35;;;;;;;;;;5098960;28;20108;-63
2022/08/15 06:25:39;;;;;;;18.20;16.13;;;;;;;;;;5080189;28;20048;-63
2022/08/15 06:28:14;;;;;;;22.38;17.83;;;;;;;;;;5075973;28;20150;-64
2022/08/15 06:30:45;;;;;;;22.83;16.00;;;;;;;;;;5100403;28;20550;-63
2022/08/15 06:33:18;;;;;;;19.17;16.42;;;;;;;;;;5098135;28;20059;-63
2022/08/15 06:35:51;;;;;;;19.80;15.20;;;;;;;;;;5094857;28;20051;-64
2022/08/15 06:38:23;;;;;;;19.52;15.18;;;;;;;;;;5097206;28;20057;-63
2022/08/15 06:40:55;;;;;;;20.63;15.75;;;;;;;;;;5096632;28;20067;-64
2022/08/15 06:43:22;;;;;;;19.58;15.25;;;;;;;;;;5096715;28;20084;-63
2022/08/15 06:45:51;;;;;;;16.58;14.63;;;;;;;;;;5094993;28;20407;-64
2022/08/15 06:48:20;;;;;;;19.23;15.98;;;;;;;;;;5100882;28;20048;-64
2022/08/15 06:50:49;;;;;;;21.63;15.00;;;;;;;;;;5100074;28;20500;-63
2022/08/15 06:53:18;;;;;;;19.23;14.25;;;;;;;;;;5099077;28;20044;-63
2022/08/15 06:55:49;;;;;;;16.40;14.15;;;;;;;;;;5099223;28;20044;-63
2022/08/15 06:58:21;;;;;;;16.75;14.82;;;;;;;;;;5096864;28;20585;-64
2022/08/15 07:00:52;;;;;;;17.88;14.05;;;;;;;;;;5105971;28;20051;-64
2022/08/15 07:03:25;;;;;;;16.40;13.55;;;;;;;;;;5099886;28;20078;-63
2022/08/15 07:05:55;;;;;;;15.85;13.77;;;;;;;;;;5102413;28;20347;-65
2022/08/15 07:08:26;;;;;;;16.90;13.52;;;;;;;;;;5092360;28;20047;-64
2022/08/15 07:10:56;;;;;;;15.90;13.30;;;;;;;;;;5093323;28;20415;-64
2022/08/15 07:13:26;;;;;;;18.08;13.65;;;;;;;;;;5095337;28;20104;-64
2022/08/15 07:15:57;;;;;;;15.93;13.10;;;;;;;;;;5097010;28;20411;-64
2022/08/15 07:18:34;;;;;;;16.65;12.15;;;;;;;;;;5098226;28;20052;-63
2022/08/15 07:21:02;;;;;;;17.13;12.52;;;;;;;;;;5103518;28;20124;-63
2022/08/15 07:23:30;;;;;;;15.63;11.98;;;;;;;;;;5103705;28;20452;-64
2022/08/15 07:26:01;;;;;;;12.93;11.63;;;;;;;;;;5104982;28;20051;-63
2022/08/15 07:28:32;;;;;;;13.27;11.10;;;;;;;;;;5104365;28;20043;-64
2022/08/15 07:31:01;;;;;;;18.63;11.27;;;;;;;;;;5102324;28;20071;-64
2022/08/15 07:33:31;;;;;;;14.00;11.77;;;;;;;;;;5093588;28;20056;-64
2022/08/15 07:36:04;;;;;;;14.27;12.55;;;;;;;;;;5101195;28;20758;-65
2022/08/15 07:38:32;;;;;;;15.57;12.40;;;;;;;;;;5102013;28;20555;-64
2022/08/15 07:41:14;;;;;;;17.80;11.23;;;;;;;;;;5103700;28;20097;-64
2022/08/15 07:43:43;;;;;;;16.48;12.13;;;;;;;;;;5106377;28;20044;-64
2022/08/15 07:46:12;;;;;;;13.15;11.85;;;;;;;;;;5105827;28;20097;-64
2022/08/15 07:48:39;;;;;;;15.43;12.05;;;;;;;;;;5097447;28;20050;-64
2022/08/15 07:51:09;;;;;;;18.23;12.52;;;;;;;;;;5102679;28;20129;-64
2022/08/15 07:53:49;;;;;;;17.63;12.13;;;;;;;;;;5100313;28;20056;-65
2022/08/15 07:56:18;;;;;;;14.32;11.35;;;;;;;;;;5103898;28;20044;-64
2022/08/15 07:58:47;;;;;;;14.45;10.65;;;;;;;;;;5105382;28;20730;-64
2022/08/15 08:01:15;;;;;;;18.27;11.32;;;;;;;;;;5107171;28;20048;-64
2022/08/15 08:03:46;;;;;;;13.68;9.98;;;;;;;;;;5104425;28;20044;-64
2022/08/15 08:06:17;;;;;;;10.63;9.20;;;;;;;;;;5103578;28;20107;-65
2022/08/15 08:08:49;;;;;;;12.93;8.65;;;;;;;;;;5104103;28;20051;-64
2022/08/15 08:11:22;;;;;;;12.25;8.38;;;;;;;;;;5099323;28;20050;-65
2022/08/15 08:13:49;;;;;;;;;;;;;;;;;;5101191;28;20047;-64
2022/08/15 08:16:22;;;;;;;8.45;6.25;;;;;;;;;;5085718;28;19932;-64
2022/08/15 08:18:53;;;;;;;14.02;6.75;;;;;;;;;;5098859;28;20047;-64
2022/08/15 08:21:23;;;;;;;12.35;6.65;;;;;;;;;;5081497;28;20059;-65
2022/08/15 08:23:54;;;;;;;10.48;7.07;;;;;;;;;;5100401;28;20052;-65
2022/08/15 08:26:27;;;;;;;9.50;7.47;;;;;;;;;;5084133;28;20089;-65
2022/08/15 08:28:59;;;;;;;11.50;7.55;;;;;;;;;;5102426;28;20135;-64
2022/08/15 08:31:31;;;;;;;8.18;7.38;;;;;;;;;;5099838;28;20441;-65
2022/08/15 08:34:05;;;;;;;11.27;7.70;;;;;;;;;;5106243;28;20051;-65
2022/08/15 08:36:34;;;;;;;8.15;7.35;;;;;;;;;;5103548;28;20047;-64
2022/08/15 08:39:08;;;;;;;9.77;7.80;;;;;;;;;;5097969;28;20044;-64
2022/08/15 08:41:40;;;;;;;9.60;7.40;;;;;;;;;;5084112;28;20055;-64
2022/08/15 08:44:19;;;;;;;9.57;7.30;;;;;;;;;;5101785;28;20063;-64
2022/08/15 08:46:54;;;;;;;9.75;7.03;;;;;;;;;;5097026;28;20513;-64
2022/08/15 08:49:25;;;;;;;9.73;6.50;;;;;;;;;;5104855;28;20751;-64
2022/08/15 08:51:57;;;;;;;8.90;6.60;;;;;;;;;;5101617;28;20122;-64
2022/08/15 08:54:26;;;;;;;;;;;;;;;;;;5084013;28;20047;-65
2022/08/15 08:56:55;;;;;;;6.63;5.57;;;;;;;;;;5100393;28;20340;-64
2022/08/15 08:59:23;;;;;;;6.93;6.03;;;;;;;;;;5104964;28;20043;-65
2022/08/15 09:01:54;;;;;;;10.73;6.25;;;;;;;;;;5103553;28;20075;-64
2022/08/15 09:04:24;;;;;;;7.47;5.90;;;;;;;;;;5104861;28;20047;-64
2022/08/15 09:06:55;;;;;;;8.32;5.32;;;;;;;;;;5084572;28;20383;-65
2022/08/15 09:09:26;;;;;;;5.80;4.95;;;;;;;;;;5103442;28;20395;-65
2022/08/15 09:11:56;;;;;;;7.40;5.22;;;;;;;;;;5104655;28;20060;-65
2022/08/15 09:14:26;;;;;;;7.20;6.25;;;;;;;;;;5081943;28;20086;-65
2022/08/15 09:16:56;;;;;;;6.25;5.65;;;;;;;;;;5105212;28;20078;-65
2022/08/15 09:19:26;;;;;;;7.32;5.80;;;;;;;;;;5102718;28;20052;-65
2022/08/15 09:21:53;;;;;;;6.90;5.65;;;;;;;;;;5103684;28;20047;-65
2022/08/15 09:24:21;;;;;;;6.75;6.05;;;;;;;;;;5104290;28;20043;-65
2022/08/15 09:26:52;;;;;;;10.60;6.57;;;;;;;;;;5083488;28;20410;-65
2022/08/15 09:29:23;;;;;;;7.93;6.13;;;;;;;;;;5102405;28;20440;-65
2022/08/15 09:31:57;;;;;;;8.00;6.90;;;;;;;;;;5079048;28;20101;-65
2022/08/15 09:34:48;;;;;;;6.88;6.13;;;;;;;;;;5099993;28;20059;-65
2022/08/15 09:37:23;;;;;;;7.93;7.07;;;;;;;;;;5102115;28;20054;-65
2022/08/15 09:40:18;;;;;;;9.18;7.03;;;;;;;;;;5104649;28;20067;-65
2022/08/15 09:42:56;;;;;;;9.18;6.93;;;;;;;;;;5101100;28;20051;-65
2022/08/15 09:45:34;;;;;;;10.68;7.35;;;;;;;;;;5096798;28;20427;-65
2022/08/15 09:48:16;;;;;;;9.52;6.85;;;;;;;;;;5097327;28;20044;-64
2022/08/15 09:50:50;;;;;;;7.10;6.40;;;;;;;;;;5078812;28;20051;-65
2022/08/15 09:53:27;;;;;;;9.65;7.28;;;;;;;;;;5098261;28;20040;-65
2022/08/15 09:55:54;;;;;;;14.07;7.32;;;;;;;;;;5095763;28;20043;-65
2022/08/15 09:58:24;;;;;;;9.32;7.90;;;;;;;;;;5098509;28;20048;-65
2022/08/15 10:00:53;;;;;;;9.80;7.78;;;;;;;;;;5102001;28;20047;-65
2022/08/15 10:03:23;;;;;;;12.25;7.28;;;;;;;;;;5091711;28;20075;-65
2022/08/15 10:06:05;;;;;;;8.75;7.47;;;;;;;;;;5097475;28;20101;-65
2022/08/15 10:08:51;;;;;;;8.27;5.90;;;;;;;;;;5095443;28;20503;-65
2022/08/15 10:11:24;;;;;;;12.00;7.20;;;;;;;;;;5078172;28;20312;-65
2022/08/15 10:14:01;;;;;;;9.10;7.53;;;;;;;;;;5099993;28;20048;-65
2022/08/15 10:16:46;;;;;;;10.32;7.82;;;;;;;;;;5084883;28;20180;-65
2022/08/15 10:19:27;;;;;;;11.77;8.13;;;;;;;;;;5105252;28;20134;-65
2022/08/15 10:21:56;;;;;;;9.15;7.80;;;;;;;;;;5106952;28;20078;-64
2022/08/15 10:24:25;;;;;;;12.35;8.63;;;;;;;;;;5108456;28;20500;-65
2022/08/15 10:27:19;;;;;;;10.30;9.20;;;;;;;;;;5098874;28;20048;-65
2022/08/15 10:29:50;;;;;;;9.68;8.15;;;;;;;;;;5103957;28;20043;-65
2022/08/15 10:32:26;;;;;;;13.38;8.73;;;;;;;;;;5108251;28;20077;-65
2022/08/15 10:34:57;;;;;;;19.85;15.68;;;;;;;;;;5107015;28;20105;-65
2022/08/15 10:37:29;;;;;;;23.23;15.90;;;;;;;;;;5107121;28;20499;-65
2022/08/15 10:40:17;;;;;;;18.60;15.98;;;;;;;;;;5105801;28;20043;-65
2022/08/15 10:42:49;;;;;;;17.85;15.90;;;;;;;;;;5101950;28;20043;-65
2022/08/15 10:45:17;;;;;;;15.57;13.98;;;;;;;;;;5076145;28;20047;-65
2022/08/15 10:47:49;;;;;;;16.23;13.25;;;;;;;;;;5078852;28;20387;-65
2022/08/15 10:50:19;;;;;;;18.60;13.68;;;;;;;;;;5082453;28;20048;-65
2022/08/15 10:52:56;;;;;;;17.98;14.93;;;;;;;;;;5081890;28;20417;-65
2022/08/15 10:55:28;;;;;;;17.38;15.38;;;;;;;;;;5084395;28;20106;-65
2022/08/15 10:57:57;;;;;;;18.60;16.13;;;;;;;;;;5085083;28;20499;-65
2022/08/15 11:00:37;;;;;;;22.52;15.02;;;;;;;;;;5085637;28;20044;-65
2022/08/15 11:03:05;;;;;;;19.42;13.98;;;;;;;;;;5085223;28;20047;-65
2022/08/15 11:05:33;;;;;;;18.13;15.95;;;;;;;;;;5077906;28;20070;-65
2022/08/15 11:08:02;;;;;;;19.33;15.30;;;;;;;;;;5086288;28;20078;-65
2022/08/15 11:10:30;;;;;;;18.83;16.48;;;;;;;;;;5083980;28;20052;-65
2022/08/15 11:12:59;;;;;;;16.08;13.30;;;;;;;;;;5086296;28;20040;-65
2022/08/15 11:15:29;;;;;;;16.98;15.15;;;;;;;;;;5083151;28;20050;-65
2022/08/15 11:18:04;;;;;;;15.07;13.55;;;;;;;;;;5081752;28;20056;-65
2022/08/15 11:20:36;;;;;;;18.80;13.98;;;;;;;;;;5077536;28;20044;-65
2022/08/15 11:23:04;;;;;;;14.65;13.15;;;;;;;;;;5076756;28;20048;-65
2022/08/15 11:25:33;;;;;;;14.20;12.70;;;;;;;;;;5077972;28;20044;-64
2022/08/15 11:28:02;;;;;;;14.32;11.88;;;;;;;;;;5080888;28;20437;-65
2022/08/15 11:30:31;;;;;;;15.20;11.85;;;;;;;;;;5084174;28;20049;-65
2022/08/15 11:33:17;;;;;;;12.98;11.32;;;;;;;;;;5082550;28;20097;-65
2022/08/15 11:35:45;;;;;;;22.05;14.45;;;;;;;;;;5086798;28;20851;-65
2022/08/15 11:38:16;;;;;;;14.90;13.15;;;;;;;;;;5081831;28;20074;-65
2022/08/15 11:40:43;;;;;;;14.35;10.23;;;;;;;;;;5080675;28;20122;-65
2022/08/15 11:43:15;;;;;;;12.65;10.82;;;;;;;;;;5086942;28;20052;-65
2022/08/15 11:45:46;;;;;;;17.20;10.87;;;;;;;;;;5105261;28;20044;-65
2022/08/15 11:48:15;;;;;;;14.27;12.35;;;;;;;;;;5105028;28;20055;-65
2022/08/15 11:50:55;;;;;;;16.30;12.63;;;;;;;;;;5098532;28;20208;-65
2022/08/15 11:53:27;;;;;;;18.88;12.98;;;;;;;;;;5100983;28;20044;-65
2022/08/15 11:55:55;;;;;;;;;;;;;;;;;;5098340;28;20509;-65
2022/08/15 11:58:29;;;;;;;17.00;11.82;;;;;;;;;;5107644;28;19919;-65
2022/08/15 12:00:57;;;;;;;13.20;11.38;;;;;;;;;;5104584;28;20078;-65
2022/08/15 12:03:26;;;;;;;19.70;11.80;;;;;;;;;;5104764;28;20051;-65
2022/08/15 12:05:54;;;;;;;20.50;11.90;;;;;;;;;;5078257;28;20539;-64
2022/08/15 12:08:24;;;;;;;14.52;10.93;;;;;;;;;;5102139;28;20534;-65
2022/08/15 12:10:52;;;;;;;15.02;11.20;;;;;;;;;;5106029;28;20039;-65
2022/08/15 12:13:23;;;;;;;11.82;10.63;;;;;;;;;;5103147;28;20085;-65
2022/08/15 12:15:50;;;;;;;16.33;10.90;;;;;;;;;;5088706;28;20498;-65
2022/08/15 12:18:32;;;;;;;16.48;11.80;;;;;;;;;;5086215;28;20063;-65
2022/08/15 12:21:10;;;;;;;15.27;11.80;;;;;;;;;;5098793;28;20050;-65
2022/08/15 12:23:45;;;;;;;14.55;11.50;;;;;;;;;;5093431;28;20040;-64
2022/08/15 12:26:14;;;;;;;12.18;10.77;;;;;;;;;;5103234;28;20048;-65
2022/08/15 12:28:42;;;;;;;13.43;10.65;;;;;;;;;;5088011;28;20633;-65
2022/08/15 12:31:15;;;;;;;11.60;7.95;;;;;;;;;;5103502;28;20089;-65
2022/08/15 12:33:43;;;;;;;5.72;4.18;;;;;;;;;;5100730;28;20044;-65
2022/08/15 12:36:11;;;;;;;9.50;3.70;;;;;;;;;;5100427;28;20598;-65
2022/08/15 12:38:40;;;;;;;4.65;3.75;;;;;;;;;;5098196;28;20052;-65
2022/08/15 12:41:07;;;;;;;6.25;3.67;;;;;;;;;;5104774;28;20165;-65
2022/08/15 12:43:35;;;;;;;3.95;3.22;;;;;;;;;;5081855;28;20056;-65
2022/08/15 12:46:02;;;;;;;6.78;3.88;;;;;;;;;;5099241;28;20064;-65
2022/08/15 12:48:30;;;;;;;5.75;3.90;;;;;;;;;;5097541;28;20048;-65
2022/08/15 12:50:58;;;;;;;5.50;3.63;;;;;;;;;;5104200;28;20375;-65
2022/08/15 12:53:25;;;;;;;6.05;3.90;;;;;;;;;;5104733;28;20410;-65
2022/08/15 12:55:54;;;;;;;9.30;4.00;;;;;;;;;;5101902;28;20044;-65
2022/08/15 12:58:21;;;;;;;5.25;4.03;;;;;;;;;;5106500;28;20059;-65
2022/08/15 13:00:49;;;;;;;6.72;3.65;;;;;;;;;;5105302;28;20047;-65
2022/08/15 13:03:19;;;;;;;8.95;3.47;;;;;;;;;;5088210;28;20048;-65
2022/08/15 13:05:46;;;;;;;6.93;3.90;;;;;;;;;;5104959;28;20047;-64
2022/08/15 13:08:14;;;;;;;4.97;4.22;;;;;;;;;;5106055;28;20541;-64
2022/08/15 13:10:41;;;;;;;6.15;4.50;;;;;;;;;;5107749;27;20040;-64
2022/08/15 13:13:11;;;;;;;7.07;4.80;;;;;;;;;;5087531;28;20040;-65
2022/08/15 13:15:39;;;;;;;6.25;5.38;;;;;;;;;;5102107;28;20050;-65
2022/08/15 13:18:06;;;;;;;8.82;5.75;;;;;;;;;;5101272;28;20055;-65
2022/08/15 13:23:38;;;;;;;8.65;5.93;;;;;;;;;;5101984;28;21010;-64
2022/08/15 13:26:08;;;;;;;9.30;7.47;;;;;;;;;;5103930;28;20683;-64
2022/08/15 13:28:37;;;;;;;12.02;7.18;;;;;;;;;;5103160;28;20043;-65
2022/08/15 13:31:04;;;;;;;9.52;6.85;;;;;;;;;;5086081;28;20055;-65
2022/08/15 13:33:32;;;;;;;11.13;6.90;;;;;;;;;;5105346;28;20477;-65
2022/08/15 13:36:00;;;;;;;10.00;5.65;;;;;;;;;;5104793;28;20087;-65
2022/08/15 13:38:27;;;;;;;9.05;6.10;;;;;;;;;;5097030;28;20476;-66
2022/08/15 13:40:55;;;;;;;9.43;6.32;;;;;;;;;;5104196;28;20605;-65
2022/08/15 13:43:23;;;;;;;9.82;6.82;;;;;;;;;;5105731;28;20576;-65
2022/08/15 13:45:52;;;;;;;7.88;4.63;;;;;;;;;;5101839;28;20169;-66
2022/08/15 13:48:22;;;;;;;6.55;4.97;;;;;;;;;;5097274;28;20055;-66
2022/08/15 13:50:50;;;;;;;9.90;4.82;;;;;;;;;;5104982;28;20059;-65
2022/08/15 13:53:17;;;;;;;8.18;5.32;;;;;;;;;;5109883;28;20046;-65
2022/08/15 13:55:44;;;;;;;9.38;5.78;;;;;;;;;;5107637;28;20138;-65
2022/08/15 13:58:12;;;;;;;8.57;5.43;;;;;;;;;;5109398;28;20413;-66
2022/08/15 14:00:39;;;;;;;7.97;5.40;;;;;;;;;;5104943;28;20043;-65
2022/08/15 14:03:08;;;;;;;9.48;5.20;;;;;;;;;;5094094;28;20063;-65
2022/08/15 14:05:36;;;;;;;10.77;5.00;;;;;;;;;;5106720;28;20059;-65
2022/08/15 14:08:03;;;;;;;8.55;5.25;;;;;;;;;;5105096;28;20073;-65
2022/08/15 14:10:31;;;;;;;9.00;5.95;;;;;;;;;;5107984;28;20051;-65
2022/08/15 14:12:59;;;;;;;6.72;5.15;;;;;;;;;;5109559;28;20054;-65
2022/08/15 14:15:26;;;;;;;5.57;4.15;;;;;;;;;;5088314;28;20438;-65
2022/08/15 14:17:53;;;;;;;10.30;3.60;;;;;;;;;;5106947;28;20043;-65
2022/08/15 14:20:22;;;;;;;5.50;3.92;;;;;;;;;;5106442;28;20044;-66
2022/08/15 14:22:50;;;;;;;9.10;3.38;;;;;;;;;;5106785;28;20043;-65
2022/08/15 14:25:17;;;;;;;8.60;5.15;;;;;;;;;;5107609;28;20044;-65
2022/08/15 14:27:45;;;;;;;11.15;6.13;;;;;;;;;;5106471;28;20044;-65
2022/08/15 14:30:13;;;;;;;4.95;3.83;;;;;;;;;;5102303;28;20505;-66
2022/08/15 14:32:40;;;;;;;10.40;4.10;;;;;;;;;;5108896;28;20078;-66
2022/08/15 14:35:10;;;;;;;6.40;3.72;;;;;;;;;;5108790;28;20074;-65
2022/08/15 14:37:39;;;;;;;7.20;4.30;;;;;;;;;;5102338;28;20058;-66
2022/08/15 14:40:09;;;;;;;5.65;3.60;;;;;;;;;;5108135;28;20044;-66
2022/08/15 14:42:37;;;;;;;9.25;4.22;;;;;;;;;;5094749;28;20048;-66
2022/08/15 14:45:05;;;;;;;7.53;4.00;;;;;;;;;;5108156;28;20048;-65